sensor_id;sensor_type;location;lat;lon;timestamp;temperature;humidity
19880;DHT22;10102;50.828;4.416;2022-08-19T00:00:21;22.60;99.90
19880;DHT22;10102;50.828;4.416;2022-08-19T00:02:47;22.50;99.90
19880;DHT22;10102;50.828;4.416;2022-08-19T00:05:14;22.50;99.90
19880;DHT22;10102;50.828;4.416;2022-08-19T00:07:41;22.60;99.90
19880;DHT22;10102;50.828;4.416;2022-08-19T00:10:11;22.40;99.90
19880;DHT22;10102;50.828;4.416;2022-08-19T00:12:37;22.50;99.90
19880;DHT22;10102;50.828;4.416;2022-08-19T00:15:09;22.50;99.90
19880;DHT22;10102;50.828;4.416;2022-08-19T00:17:44;22.40;99.90
19880;DHT22;10102;50.828;4.416;2022-08-19T00:20:13;22.40;99.90
19880;DHT22;10102;50.828;4.416;2022-08-19T00:22:39;22.30;99.90
19880;DHT22;10102;50.828;4.416;2022-08-19T00:25:07;22.30;99.90
19880;DHT22;10102;50.828;4.416;2022-08-19T00:27:33;22.10;99.90
19880;DHT22;10102;50.828;4.416;2022-08-19T00:29:59;22.20;99.90
19880;DHT22;10102;50.828;4.416;2022-08-19T00:32:25;22.10;99.90
19880;DHT22;10102;50.828;4.416;2022-08-19T00:34:52;22.20;99.90
19880;DHT22;10102;50.828;4.416;2022-08-19T00:37:23;22.50;99.90
19880;DHT22;10102;50.828;4.416;2022-08-19T00:42:18;22.10;99.90
19880;DHT22;10102;50.828;4.416;2022-08-19T00:44:44;22.00;99.90
19880;DHT22;10102;50.828;4.416;2022-08-19T00:47:10;22.00;99.90
19880;DHT22;10102;50.828;4.416;2022-08-19T00:49:41;22.10;99.90
19880;DHT22;10102;50.828;4.416;2022-08-19T00:52:12;22.10;99.90
19880;DHT22;10102;50.828;4.416;2022-08-19T00:54:40;22.20;99.90
19880;DHT22;10102;50.828;4.416;2022-08-19T00:57:10;22.20;99.90
19880;DHT22;10102;50.828;4.416;2022-08-19T00:59:39;21.70;99.90
19880;DHT22;10102;50.828;4.416;2022-08-19T01:02:07;22.10;99.90
19880;DHT22;10102;50.828;4.416;2022-08-19T01:04:32;22.10;99.90
19880;DHT22;10102;50.828;4.416;2022-08-19T01:06:59;22.10;99.90
19880;DHT22;10102;50.828;4.416;2022-08-19T01:09:25;22.10;99.90
19880;DHT22;10102;50.828;4.416;2022-08-19T01:11:51;22.10;99.90
19880;DHT22;10102;50.828;4.416;2022-08-19T01:14:17;21.90;99.90
19880;DHT22;10102;50.828;4.416;2022-08-19T01:16:45;21.70;99.90
19880;DHT22;10102;50.828;4.416;2022-08-19T01:19:33;21.60;99.90
19880;DHT22;10102;50.828;4.416;2022-08-19T01:22:11;21.50;99.90
19880;DHT22;10102;50.828;4.416;2022-08-19T01:24:40;21.50;99.90
19880;DHT22;10102;50.828;4.416;2022-08-19T01:27:07;21.40;99.90
19880;DHT22;10102;50.828;4.416;2022-08-19T01:29:38;21.10;99.90
19880;DHT22;10102;50.828;4.416;2022-08-19T01:32:04;21.20;99.90
19880;DHT22;10102;50.828;4.416;2022-08-19T01:34:30;21.20;99.90
19880;DHT22;10102;50.828;4.416;2022-08-19T01:36:56;21.10;99.90
19880;DHT22;10102;50.828;4.416;2022-08-19T01:39:24;21.00;99.90
19880;DHT22;10102;50.828;4.416;2022-08-19T01:41:50;20.90;99.90
19880;DHT22;10102;50.828;4.416;2022-08-19T01:44:19;21.00;99.90
19880;DHT22;10102;50.828;4.416;2022-08-19T01:46:50;21.00;99.90
19880;DHT22;10102;50.828;4.416;2022-08-19T01:49:18;20.90;99.90
19880;DHT22;10102;50.828;4.416;2022-08-19T01:51:45;20.90;99.90
19880;DHT22;10102;50.828;4.416;2022-08-19T01:54:14;21.20;99.90
19880;DHT22;10102;50.828;4.416;2022-08-19T01:56:40;20.80;99.90
19880;DHT22;10102;50.828;4.416;2022-08-19T01:59:11;20.80;99.90
19880;DHT22;10102;50.828;4.416;2022-08-19T02:01:37;20.70;99.90
19880;DHT22;10102;50.828;4.416;2022-08-19T02:04:04;20.80;99.90
19880;DHT22;10102;50.828;4.416;2022-08-19T02:06:31;20.80;99.90
19880;DHT22;10102;50.828;4.416;2022-08-19T02:08:57;20.80;99.90
19880;DHT22;10102;50.828;4.416;2022-08-19T02:11:29;20.90;99.90
19880;DHT22;10102;50.828;4.416;2022-08-19T02:13:58;20.70;99.90
19880;DHT22;10102;50.828;4.416;2022-08-19T02:16:24;20.60;99.90
19880;DHT22;10102;50.828;4.416;2022-08-19T02:18:50;21.00;99.90
19880;DHT22;10102;50.828;4.416;2022-08-19T02:21:17;20.70;99.90
19880;DHT22;10102;50.828;4.416;2022-08-19T02:23:44;20.70;99.90
19880;DHT22;10102;50.828;4.416;2022-08-19T02:26:12;20.70;99.90
19880;DHT22;10102;50.828;4.416;2022-08-19T02:28:39;20.60;99.90
19880;DHT22;10102;50.828;4.416;2022-08-19T02:31:14;20.50;99.90
19880;DHT22;10102;50.828;4.416;2022-08-19T02:33:43;20.50;99.90
19880;DHT22;10102;50.828;4.416;2022-08-19T02:36:11;20.50;99.90
19880;DHT22;10102;50.828;4.416;2022-08-19T02:38:37;20.30;99.90
19880;DHT22;10102;50.828;4.416;2022-08-19T02:41:07;20.30;99.90
19880;DHT22;10102;50.828;4.416;2022-08-19T02:43:33;20.00;99.90
19880;DHT22;10102;50.828;4.416;2022-08-19T02:46:20;20.10;99.90
19880;DHT22;10102;50.828;4.416;2022-08-19T02:48:49;20.10;99.90
19880;DHT22;10102;50.828;4.416;2022-08-19T02:51:23;20.10;99.90
19880;DHT22;10102;50.828;4.416;2022-08-19T02:53:49;20.20;99.90
19880;DHT22;10102;50.828;4.416;2022-08-19T02:56:16;19.90;99.90
19880;DHT22;10102;50.828;4.416;2022-08-19T02:58:41;20.00;99.90
19880;DHT22;10102;50.828;4.416;2022-08-19T03:01:09;20.00;99.90
19880;DHT22;10102;50.828;4.416;2022-08-19T03:03:36;20.10;99.90
19880;DHT22;10102;50.828;4.416;2022-08-19T03:06:13;19.90;99.90
19880;DHT22;10102;50.828;4.416;2022-08-19T03:08:41;19.70;99.90
19880;DHT22;10102;50.828;4.416;2022-08-19T03:11:17;19.90;99.90
19880;DHT22;10102;50.828;4.416;2022-08-19T03:13:43;19.90;99.90
19880;DHT22;10102;50.828;4.416;2022-08-19T03:16:10;19.90;99.90
19880;DHT22;10102;50.828;4.416;2022-08-19T03:18:36;20.00;99.90
19880;DHT22;10102;50.828;4.416;2022-08-19T03:21:02;19.80;99.90
19880;DHT22;10102;50.828;4.416;2022-08-19T03:25:54;19.60;99.90
19880;DHT22;10102;50.828;4.416;2022-08-19T03:28:21;19.70;99.90
19880;DHT22;10102;50.828;4.416;2022-08-19T03:31:04;19.60;99.90
19880;DHT22;10102;50.828;4.416;2022-08-19T03:33:32;19.60;99.90
19880;DHT22;10102;50.828;4.416;2022-08-19T03:38:43;19.40;99.90
19880;DHT22;10102;50.828;4.416;2022-08-19T03:41:13;19.50;99.90
19880;DHT22;10102;50.828;4.416;2022-08-19T03:43:40;19.40;99.90
19880;DHT22;10102;50.828;4.416;2022-08-19T03:46:11;19.50;99.90
19880;DHT22;10102;50.828;4.416;2022-08-19T03:48:39;19.40;99.90
19880;DHT22;10102;50.828;4.416;2022-08-19T03:51:06;19.50;99.90
19880;DHT22;10102;50.828;4.416;2022-08-19T03:53:34;19.50;99.90
19880;DHT22;10102;50.828;4.416;2022-08-19T03:56:01;19.40;99.90
19880;DHT22;10102;50.828;4.416;2022-08-19T03:58:28;19.30;99.90
19880;DHT22;10102;50.828;4.416;2022-08-19T04:00:57;19.20;99.90
19880;DHT22;10102;50.828;4.416;2022-08-19T04:03:26;19.00;99.90
19880;DHT22;10102;50.828;4.416;2022-08-19T04:05:52;19.10;99.90
19880;DHT22;10102;50.828;4.416;2022-08-19T04:08:19;19.50;99.90
19880;DHT22;10102;50.828;4.416;2022-08-19T04:10:48;19.10;99.90
19880;DHT22;10102;50.828;4.416;2022-08-19T04:13:16;19.10;99.90
19880;DHT22;10102;50.828;4.416;2022-08-19T04:15:43;18.90;99.90
19880;DHT22;10102;50.828;4.416;2022-08-19T04:18:10;18.90;99.90
19880;DHT22;10102;50.828;4.416;2022-08-19T04:20:41;19.00;99.90
19880;DHT22;10102;50.828;4.416;2022-08-19T04:23:07;19.00;99.90
19880;DHT22;10102;50.828;4.416;2022-08-19T04:25:38;19.00;99.90
19880;DHT22;10102;50.828;4.416;2022-08-19T04:28:04;18.90;99.90
19880;DHT22;10102;50.828;4.416;2022-08-19T04:30:30;19.00;99.90
19880;DHT22;10102;50.828;4.416;2022-08-19T04:32:55;18.90;99.90
19880;DHT22;10102;50.828;4.416;2022-08-19T04:35:21;18.90;99.90
19880;DHT22;10102;50.828;4.416;2022-08-19T04:37:47;18.80;99.90
19880;DHT22;10102;50.828;4.416;2022-08-19T04:40:13;18.60;99.90
19880;DHT22;10102;50.828;4.416;2022-08-19T04:42:57;19.20;99.90
19880;DHT22;10102;50.828;4.416;2022-08-19T04:45:24;18.80;99.90
19880;DHT22;10102;50.828;4.416;2022-08-19T04:47:56;18.80;99.90
19880;DHT22;10102;50.828;4.416;2022-08-19T04:50:22;18.70;99.90
19880;DHT22;10102;50.828;4.416;2022-08-19T04:52:50;18.80;99.90
19880;DHT22;10102;50.828;4.416;2022-08-19T04:55:16;18.90;99.90
19880;DHT22;10102;50.828;4.416;2022-08-19T04:57:44;18.80;99.90
19880;DHT22;10102;50.828;4.416;2022-08-19T05:00:10;19.00;99.90
19880;DHT22;10102;50.828;4.416;2022-08-19T05:02:37;19.00;99.90
19880;DHT22;10102;50.828;4.416;2022-08-19T05:05:04;19.30;99.90
19880;DHT22;10102;50.828;4.416;2022-08-19T05:07:31;19.20;99.90
19880;DHT22;10102;50.828;4.416;2022-08-19T05:09:56;19.00;99.90
19880;DHT22;10102;50.828;4.416;2022-08-19T05:12:22;18.90;99.90
19880;DHT22;10102;50.828;4.416;2022-08-19T05:14:48;18.90;99.90
19880;DHT22;10102;50.828;4.416;2022-08-19T05:17:14;19.00;99.90
19880;DHT22;10102;50.828;4.416;2022-08-19T05:19:40;19.00;99.90
19880;DHT22;10102;50.828;4.416;2022-08-19T05:22:24;19.30;99.90
19880;DHT22;10102;50.828;4.416;2022-08-19T05:25:07;19.00;99.90
19880;DHT22;10102;50.828;4.416;2022-08-19T05:27:33;17.60;99.90
19880;DHT22;10102;50.828;4.416;2022-08-19T05:29:59;19.10;99.90
19880;DHT22;10102;50.828;4.416;2022-08-19T05:32:25;18.90;99.90
19880;DHT22;10102;50.828;4.416;2022-08-19T05:34:53;19.00;99.90
19880;DHT22;10102;50.828;4.416;2022-08-19T05:37:19;19.00;99.90
19880;DHT22;10102;50.828;4.416;2022-08-19T05:39:45;19.40;99.90
19880;DHT22;10102;50.828;4.416;2022-08-19T05:42:13;19.00;99.90
19880;DHT22;10102;50.828;4.416;2022-08-19T05:44:42;19.20;99.90
19880;DHT22;10102;50.828;4.416;2022-08-19T05:47:13;19.30;99.90
19880;DHT22;10102;50.828;4.416;2022-08-19T05:49:40;19.50;99.90
19880;DHT22;10102;50.828;4.416;2022-08-19T05:52:08;19.20;99.90
19880;DHT22;10102;50.828;4.416;2022-08-19T05:54:40;19.40;99.90
19880;DHT22;10102;50.828;4.416;2022-08-19T05:57:07;19.20;99.90
19880;DHT22;10102;50.828;4.416;2022-08-19T05:59:33;19.40;99.90
19880;DHT22;10102;50.828;4.416;2022-08-19T06:02:03;19.60;99.90
19880;DHT22;10102;50.828;4.416;2022-08-19T06:04:41;19.60;99.90
19880;DHT22;10102;50.828;4.416;2022-08-19T06:07:11;19.70;99.90
19880;DHT22;10102;50.828;4.416;2022-08-19T06:09:36;19.60;99.90
19880;DHT22;10102;50.828;4.416;2022-08-19T06:12:03;19.70;99.90
19880;DHT22;10102;50.828;4.416;2022-08-19T06:14:32;19.60;99.90
19880;DHT22;10102;50.828;4.416;2022-08-19T06:17:00;20.00;99.90
19880;DHT22;10102;50.828;4.416;2022-08-19T06:19:28;19.80;99.90
19880;DHT22;10102;50.828;4.416;2022-08-19T06:21:59;19.90;99.90
19880;DHT22;10102;50.828;4.416;2022-08-19T06:24:27;20.00;99.90
19880;DHT22;10102;50.828;4.416;2022-08-19T06:26:54;20.50;99.90
19880;DHT22;10102;50.828;4.416;2022-08-19T06:29:23;20.50;99.90
19880;DHT22;10102;50.828;4.416;2022-08-19T06:31:52;20.50;99.90
19880;DHT22;10102;50.828;4.416;2022-08-19T06:34:19;20.20;99.90
19880;DHT22;10102;50.828;4.416;2022-08-19T06:36:48;20.40;99.90
19880;DHT22;10102;50.828;4.416;2022-08-19T06:39:17;20.30;99.90
19880;DHT22;10102;50.828;4.416;2022-08-19T06:41:46;20.40;99.90
19880;DHT22;10102;50.828;4.416;2022-08-19T06:44:13;20.50;99.90
19880;DHT22;10102;50.828;4.416;2022-08-19T06:46:40;20.50;99.90
19880;DHT22;10102;50.828;4.416;2022-08-19T06:49:07;20.70;99.90
19880;DHT22;10102;50.828;4.416;2022-08-19T06:51:35;20.80;99.90
19880;DHT22;10102;50.828;4.416;2022-08-19T06:54:01;20.80;99.90
19880;DHT22;10102;50.828;4.416;2022-08-19T06:56:29;20.90;99.90
19880;DHT22;10102;50.828;4.416;2022-08-19T06:59:11;20.80;99.90
19880;DHT22;10102;50.828;4.416;2022-08-19T07:01:42;21.10;99.90
19880;DHT22;10102;50.828;4.416;2022-08-19T07:04:09;21.00;99.90
19880;DHT22;10102;50.828;4.416;2022-08-19T07:06:36;21.10;99.90
19880;DHT22;10102;50.828;4.416;2022-08-19T07:09:07;21.10;99.90
19880;DHT22;10102;50.828;4.416;2022-08-19T07:11:33;21.30;99.90
19880;DHT22;10102;50.828;4.416;2022-08-19T07:14:00;21.40;99.90
19880;DHT22;10102;50.828;4.416;2022-08-19T07:16:26;21.40;99.90
19880;DHT22;10102;50.828;4.416;2022-08-19T07:18:53;21.50;99.90
19880;DHT22;10102;50.828;4.416;2022-08-19T07:21:24;21.50;99.90
19880;DHT22;10102;50.828;4.416;2022-08-19T07:23:54;21.50;99.90
19880;DHT22;10102;50.828;4.416;2022-08-19T07:26:33;21.50;99.90
19880;DHT22;10102;50.828;4.416;2022-08-19T07:29:04;21.40;99.90
19880;DHT22;10102;50.828;4.416;2022-08-19T07:31:29;21.50;99.90
19880;DHT22;10102;50.828;4.416;2022-08-19T07:33:56;21.70;99.90
19880;DHT22;10102;50.828;4.416;2022-08-19T07:36:25;21.80;99.90
19880;DHT22;10102;50.828;4.416;2022-08-19T07:38:59;21.60;99.90
19880;DHT22;10102;50.828;4.416;2022-08-19T07:41:27;21.60;99.90
19880;DHT22;10102;50.828;4.416;2022-08-19T07:43:54;21.60;99.90
19880;DHT22;10102;50.828;4.416;2022-08-19T07:46:20;21.70;99.90
19880;DHT22;10102;50.828;4.416;2022-08-19T07:48:48;22.00;99.90
19880;DHT22;10102;50.828;4.416;2022-08-19T07:51:17;22.00;99.90
19880;DHT22;10102;50.828;4.416;2022-08-19T07:53:43;22.00;99.90
19880;DHT22;10102;50.828;4.416;2022-08-19T07:56:12;22.20;99.90
19880;DHT22;10102;50.828;4.416;2022-08-19T07:58:40;22.40;99.90
19880;DHT22;10102;50.828;4.416;2022-08-19T08:01:09;22.40;99.90
19880;DHT22;10102;50.828;4.416;2022-08-19T08:03:36;22.30;99.90
19880;DHT22;10102;50.828;4.416;2022-08-19T08:06:21;22.30;99.90
19880;DHT22;10102;50.828;4.416;2022-08-19T08:09:06;22.60;99.90
19880;DHT22;10102;50.828;4.416;2022-08-19T08:11:40;22.90;99.90
19880;DHT22;10102;50.828;4.416;2022-08-19T08:14:08;22.90;99.90
19880;DHT22;10102;50.828;4.416;2022-08-19T08:16:36;22.70;99.90
19880;DHT22;10102;50.828;4.416;2022-08-19T08:19:05;22.80;99.90
19880;DHT22;10102;50.828;4.416;2022-08-19T08:21:32;23.10;99.90
19880;DHT22;10102;50.828;4.416;2022-08-19T08:23:58;23.10;99.90
19880;DHT22;10102;50.828;4.416;2022-08-19T08:26:24;23.10;99.90
19880;DHT22;10102;50.828;4.416;2022-08-19T08:28:51;22.60;99.90
19880;DHT22;10102;50.828;4.416;2022-08-19T08:31:17;22.90;99.90
19880;DHT22;10102;50.828;4.416;2022-08-19T08:33:46;23.10;99.90
19880;DHT22;10102;50.828;4.416;2022-08-19T08:36:13;23.30;99.90
19880;DHT22;10102;50.828;4.416;2022-08-19T08:38:40;23.10;99.90
19880;DHT22;10102;50.828;4.416;2022-08-19T08:43:54;23.10;99.90
19880;DHT22;10102;50.828;4.416;2022-08-19T08:46:39;23.30;99.90
19880;DHT22;10102;50.828;4.416;2022-08-19T08:51:51;23.20;99.90
19880;DHT22;10102;50.828;4.416;2022-08-19T08:54:20;23.30;99.90
19880;DHT22;10102;50.828;4.416;2022-08-19T08:56:51;23.30;99.90
19880;DHT22;10102;50.828;4.416;2022-08-19T09:01:49;23.30;99.90
19880;DHT22;10102;50.828;4.416;2022-08-19T09:04:14;23.20;99.90
19880;DHT22;10102;50.828;4.416;2022-08-19T09:09:34;22.80;99.90
19880;DHT22;10102;50.828;4.416;2022-08-19T09:15:05;22.80;99.90
19880;DHT22;10102;50.828;4.416;2022-08-19T09:17:31;23.00;99.90
19880;DHT22;10102;50.828;4.416;2022-08-19T09:20:18;23.20;99.90
19880;DHT22;10102;50.828;4.416;2022-08-19T09:22:44;23.10;99.90
19880;DHT22;10102;50.828;4.416;2022-08-19T09:25:13;22.70;99.90
19880;DHT22;10102;50.828;4.416;2022-08-19T09:27:40;22.90;99.90
19880;DHT22;10102;50.828;4.416;2022-08-19T09:30:11;23.00;99.90
19880;DHT22;10102;50.828;4.416;2022-08-19T09:32:37;23.10;99.90
19880;DHT22;10102;50.828;4.416;2022-08-19T09:35:04;23.30;99.90
19880;DHT22;10102;50.828;4.416;2022-08-19T09:37:31;23.40;99.90
19880;DHT22;10102;50.828;4.416;2022-08-19T09:39:57;23.50;99.90
19880;DHT22;10102;50.828;4.416;2022-08-19T09:42:23;23.50;99.90
19880;DHT22;10102;50.828;4.416;2022-08-19T09:44:49;23.50;99.90
19880;DHT22;10102;50.828;4.416;2022-08-19T09:47:14;23.50;99.90
19880;DHT22;10102;50.828;4.416;2022-08-19T09:49:41;23.50;99.90
19880;DHT22;10102;50.828;4.416;2022-08-19T09:52:11;23.60;99.90
19880;DHT22;10102;50.828;4.416;2022-08-19T09:54:39;23.70;99.90
19880;DHT22;10102;50.828;4.416;2022-08-19T09:57:05;24.20;99.90
19880;DHT22;10102;50.828;4.416;2022-08-19T09:59:31;24.00;99.90
19880;DHT22;10102;50.828;4.416;2022-08-19T10:01:57;24.30;99.90
19880;DHT22;10102;50.828;4.416;2022-08-19T10:04:23;24.20;99.90
19880;DHT22;10102;50.828;4.416;2022-08-19T10:07:08;23.90;99.90
19880;DHT22;10102;50.828;4.416;2022-08-19T10:09:34;23.90;99.90
19880;DHT22;10102;50.828;4.416;2022-08-19T10:12:01;24.00;99.90
19880;DHT22;10102;50.828;4.416;2022-08-19T10:14:27;24.00;99.90
19880;DHT22;10102;50.828;4.416;2022-08-19T10:16:53;23.90;99.90
19880;DHT22;10102;50.828;4.416;2022-08-19T10:19:19;24.00;99.90
19880;DHT22;10102;50.828;4.416;2022-08-19T10:21:46;24.00;99.90
19880;DHT22;10102;50.828;4.416;2022-08-19T10:24:12;23.90;99.90
19880;DHT22;10102;50.828;4.416;2022-08-19T10:26:39;23.90;99.90
19880;DHT22;10102;50.828;4.416;2022-08-19T10:29:07;23.90;99.90
19880;DHT22;10102;50.828;4.416;2022-08-19T10:31:33;23.90;99.90
19880;DHT22;10102;50.828;4.416;2022-08-19T10:34:00;23.90;99.90
19880;DHT22;10102;50.828;4.416;2022-08-19T10:36:28;24.00;99.90
19880;DHT22;10102;50.828;4.416;2022-08-19T10:38:57;24.30;99.90
19880;DHT22;10102;50.828;4.416;2022-08-19T10:41:26;24.30;99.90
19880;DHT22;10102;50.828;4.416;2022-08-19T10:43:54;24.50;99.90
19880;DHT22;10102;50.828;4.416;2022-08-19T10:46:21;25.00;99.90
19880;DHT22;10102;50.828;4.416;2022-08-19T10:48:48;25.10;99.90
19880;DHT22;10102;50.828;4.416;2022-08-19T10:51:16;25.00;99.90
19880;DHT22;10102;50.828;4.416;2022-08-19T10:54:00;24.70;99.90
19880;DHT22;10102;50.828;4.416;2022-08-19T10:56:27;24.80;99.90
19880;DHT22;10102;50.828;4.416;2022-08-19T10:59:12;24.50;99.90
19880;DHT22;10102;50.828;4.416;2022-08-19T11:01:42;24.80;99.90
19880;DHT22;10102;50.828;4.416;2022-08-19T11:06:37;24.60;99.90
19880;DHT22;10102;50.828;4.416;2022-08-19T11:09:04;24.60;99.90
19880;DHT22;10102;50.828;4.416;2022-08-19T11:11:31;24.50;99.90
19880;DHT22;10102;50.828;4.416;2022-08-19T11:14:05;24.50;99.90
19880;DHT22;10102;50.828;4.416;2022-08-19T11:16:31;24.80;99.90
19880;DHT22;10102;50.828;4.416;2022-08-19T11:18:59;24.20;99.90
19880;DHT22;10102;50.828;4.416;2022-08-19T11:21:33;24.20;99.90
19880;DHT22;10102;50.828;4.416;2022-08-19T11:24:03;24.10;99.90
19880;DHT22;10102;50.828;4.416;2022-08-19T11:26:30;24.10;99.90
19880;DHT22;10102;50.828;4.416;2022-08-19T11:28:57;24.00;99.90
19880;DHT22;10102;50.828;4.416;2022-08-19T11:31:26;23.90;99.90
19880;DHT22;10102;50.828;4.416;2022-08-19T11:33:52;23.90;99.90
19880;DHT22;10102;50.828;4.416;2022-08-19T11:36:21;23.80;99.90
19880;DHT22;10102;50.828;4.416;2022-08-19T11:38:48;23.80;99.90
19880;DHT22;10102;50.828;4.416;2022-08-19T11:41:16;23.70;99.90
19880;DHT22;10102;50.828;4.416;2022-08-19T11:46:10;24.00;99.90
19880;DHT22;10102;50.828;4.416;2022-08-19T11:48:37;24.00;99.90
19880;DHT22;10102;50.828;4.416;2022-08-19T11:51:10;24.10;99.90
19880;DHT22;10102;50.828;4.416;2022-08-19T11:53:37;23.90;99.90
19880;DHT22;10102;50.828;4.416;2022-08-19T11:56:05;24.30;99.90
19880;DHT22;10102;50.828;4.416;2022-08-19T11:58:31;24.30;99.90
19880;DHT22;10102;50.828;4.416;2022-08-19T12:00:57;24.20;99.90
19880;DHT22;10102;50.828;4.416;2022-08-19T12:03:23;24.10;99.90
19880;DHT22;10102;50.828;4.416;2022-08-19T12:05:49;24.50;99.90
19880;DHT22;10102;50.828;4.416;2022-08-19T12:08:16;24.70;99.90
19880;DHT22;10102;50.828;4.416;2022-08-19T12:10:42;25.70;99.90
19880;DHT22;10102;50.828;4.416;2022-08-19T12:13:12;27.50;99.90
19880;DHT22;10102;50.828;4.416;2022-08-19T12:15:41;28.80;99.90
19880;DHT22;10102;50.828;4.416;2022-08-19T12:18:08;29.60;99.90
19880;DHT22;10102;50.828;4.416;2022-08-19T12:20:39;29.70;99.90
19880;DHT22;10102;50.828;4.416;2022-08-19T12:23:06;29.80;99.90
19880;DHT22;10102;50.828;4.416;2022-08-19T12:25:32;29.30;99.90
19880;DHT22;10102;50.828;4.416;2022-08-19T12:28:00;30.60;99.90
19880;DHT22;10102;50.828;4.416;2022-08-19T12:30:25;28.90;99.90
19880;DHT22;10102;50.828;4.416;2022-08-19T12:32:51;28.40;99.90
19880;DHT22;10102;50.828;4.416;2022-08-19T12:35:17;28.40;99.90
19880;DHT22;10102;50.828;4.416;2022-08-19T12:37:46;28.10;99.90
19880;DHT22;10102;50.828;4.416;2022-08-19T12:40:13;27.70;99.90
19880;DHT22;10102;50.828;4.416;2022-08-19T12:42:39;27.90;99.90
19880;DHT22;10102;50.828;4.416;2022-08-19T12:45:12;27.50;99.90
19880;DHT22;10102;50.828;4.416;2022-08-19T12:47:39;27.60;99.90
19880;DHT22;10102;50.828;4.416;2022-08-19T12:50:06;27.90;99.90
19880;DHT22;10102;50.828;4.416;2022-08-19T12:52:34;28.20;99.90
19880;DHT22;10102;50.828;4.416;2022-08-19T12:55:04;28.30;99.90
19880;DHT22;10102;50.828;4.416;2022-08-19T12:57:30;28.20;99.90
19880;DHT22;10102;50.828;4.416;2022-08-19T13:00:06;28.30;99.90
19880;DHT22;10102;50.828;4.416;2022-08-19T13:02:36;28.40;99.90
19880;DHT22;10102;50.828;4.416;2022-08-19T13:05:03;28.30;99.90
19880;DHT22;10102;50.828;4.416;2022-08-19T13:07:31;28.40;99.90
19880;DHT22;10102;50.828;4.416;2022-08-19T13:09:57;26.30;99.90
19880;DHT22;10102;50.828;4.416;2022-08-19T13:12:23;30.70;99.90
19880;DHT22;10102;50.828;4.416;2022-08-19T13:14:55;34.00;99.90
19880;DHT22;10102;50.828;4.416;2022-08-19T13:17:20;34.90;99.90
19880;DHT22;10102;50.828;4.416;2022-08-19T13:19:46;33.00;99.90
19880;DHT22;10102;50.828;4.416;2022-08-19T13:22:12;33.30;99.90
19880;DHT22;10102;50.828;4.416;2022-08-19T13:24:38;33.30;99.90
19880;DHT22;10102;50.828;4.416;2022-08-19T13:27:04;33.40;99.90
19880;DHT22;10102;50.828;4.416;2022-08-19T13:29:30;32.60;99.90
19880;DHT22;10102;50.828;4.416;2022-08-19T13:32:14;31.60;99.90
19880;DHT22;10102;50.828;4.416;2022-08-19T13:34:58;30.80;99.90
19880;DHT22;10102;50.828;4.416;2022-08-19T13:37:24;30.00;99.90
19880;DHT22;10102;50.828;4.416;2022-08-19T13:40:12;29.60;99.90
19880;DHT22;10102;50.828;4.416;2022-08-19T13:42:39;29.30;99.90
19880;DHT22;10102;50.828;4.416;2022-08-19T13:45:05;29.50;99.90
19880;DHT22;10102;50.828;4.416;2022-08-19T13:47:32;29.30;99.90
19880;DHT22;10102;50.828;4.416;2022-08-19T13:50:03;29.70;99.90
19880;DHT22;10102;50.828;4.416;2022-08-19T13:52:29;30.50;99.90
19880;DHT22;10102;50.828;4.416;2022-08-19T13:54:54;31.80;99.90
19880;DHT22;10102;50.828;4.416;2022-08-19T13:57:20;33.70;99.90
19880;DHT22;10102;50.828;4.416;2022-08-19T13:59:46;34.70;99.90
19880;DHT22;10102;50.828;4.416;2022-08-19T14:02:11;34.10;99.90
19880;DHT22;10102;50.828;4.416;2022-08-19T14:04:37;33.60;99.90
19880;DHT22;10102;50.828;4.416;2022-08-19T14:07:03;32.00;99.90
19880;DHT22;10102;50.828;4.416;2022-08-19T14:09:29;31.10;99.90
19880;DHT22;10102;50.828;4.416;2022-08-19T14:11:55;30.10;99.90
19880;DHT22;10102;50.828;4.416;2022-08-19T14:14:21;28.10;99.90
19880;DHT22;10102;50.828;4.416;2022-08-19T14:16:47;27.10;99.90
19880;DHT22;10102;50.828;4.416;2022-08-19T14:19:13;26.70;99.90
19880;DHT22;10102;50.828;4.416;2022-08-19T14:21:39;26.40;99.90
19880;DHT22;10102;50.828;4.416;2022-08-19T14:24:07;26.80;99.90
19880;DHT22;10102;50.828;4.416;2022-08-19T14:26:33;26.90;99.90
19880;DHT22;10102;50.828;4.416;2022-08-19T14:29:00;27.80;99.90
19880;DHT22;10102;50.828;4.416;2022-08-19T14:31:27;26.90;99.90
19880;DHT22;10102;50.828;4.416;2022-08-19T14:33:53;27.00;99.90
19880;DHT22;10102;50.828;4.416;2022-08-19T14:36:20;26.70;99.90
19880;DHT22;10102;50.828;4.416;2022-08-19T14:38:47;26.70;99.90
19880;DHT22;10102;50.828;4.416;2022-08-19T14:41:19;26.20;99.90
19880;DHT22;10102;50.828;4.416;2022-08-19T14:43:47;25.70;99.90
19880;DHT22;10102;50.828;4.416;2022-08-19T14:46:18;25.70;99.90
19880;DHT22;10102;50.828;4.416;2022-08-19T14:48:46;25.00;99.90
19880;DHT22;10102;50.828;4.416;2022-08-19T14:51:12;24.80;99.90
19880;DHT22;10102;50.828;4.416;2022-08-19T14:53:40;24.70;99.90
19880;DHT22;10102;50.828;4.416;2022-08-19T14:56:14;25.00;99.90
19880;DHT22;10102;50.828;4.416;2022-08-19T14:58:42;25.50;99.90
19880;DHT22;10102;50.828;4.416;2022-08-19T15:01:08;26.60;99.90
19880;DHT22;10102;50.828;4.416;2022-08-19T15:03:35;26.70;99.90
19880;DHT22;10102;50.828;4.416;2022-08-19T15:06:03;29.30;99.90
19880;DHT22;10102;50.828;4.416;2022-08-19T15:08:30;31.40;99.90
19880;DHT22;10102;50.828;4.416;2022-08-19T15:10:57;31.20;99.90
19880;DHT22;10102;50.828;4.416;2022-08-19T15:13:24;31.90;99.90
19880;DHT22;10102;50.828;4.416;2022-08-19T15:15:50;31.60;99.90
19880;DHT22;10102;50.828;4.416;2022-08-19T15:18:17;31.10;99.90
19880;DHT22;10102;50.828;4.416;2022-08-19T15:20:46;30.40;99.90
19880;DHT22;10102;50.828;4.416;2022-08-19T15:23:13;29.70;99.90
19880;DHT22;10102;50.828;4.416;2022-08-19T15:25:40;29.00;99.90
19880;DHT22;10102;50.828;4.416;2022-08-19T15:28:07;28.70;99.90
19880;DHT22;10102;50.828;4.416;2022-08-19T15:30:32;28.90;99.90
19880;DHT22;10102;50.828;4.416;2022-08-19T15:32:59;28.60;99.90
19880;DHT22;10102;50.828;4.416;2022-08-19T15:35:25;28.70;99.90
19880;DHT22;10102;50.828;4.416;2022-08-19T15:37:52;28.60;99.90
19880;DHT22;10102;50.828;4.416;2022-08-19T15:40:20;28.10;99.90
19880;DHT22;10102;50.828;4.416;2022-08-19T15:42:46;27.80;99.90
19880;DHT22;10102;50.828;4.416;2022-08-19T15:45:13;28.50;99.90
19880;DHT22;10102;50.828;4.416;2022-08-19T15:47:40;28.50;99.90
19880;DHT22;10102;50.828;4.416;2022-08-19T15:50:08;28.60;99.90
19880;DHT22;10102;50.828;4.416;2022-08-19T15:52:34;27.80;99.90
19880;DHT22;10102;50.828;4.416;2022-08-19T15:54:59;27.80;99.90
19880;DHT22;10102;50.828;4.416;2022-08-19T15:57:27;27.10;99.90
19880;DHT22;10102;50.828;4.416;2022-08-19T15:59:53;27.10;99.90
19880;DHT22;10102;50.828;4.416;2022-08-19T16:02:37;26.60;99.90